Time;durP1;ratioP1;P1;durP2;ratioP2;P2;SDS_P1;SDS_P2;PMS_P1;PMS_P2;Temp;Humidity;BMP_temperature;BMP_pressure;BME280_temperature;BME280_humidity;BME280_pressure;Samples;Min_cycle;Max_cycle;Signal;HPM_P1;HPM_P2
2023/12/01 00:00:08;;;;;;;20.37;18.77;;;;;;;-141.02;100.00;38803.03;5071420;28;20614;-73
2023/12/01 00:02:35;;;;;;;25.83;24.03;;;;;;;-141.02;100.00;38768.53;5071775;28;20570;-73
2023/12/01 00:05:02;;;;;;;24.83;23.13;;;;;;;-141.02;100.00;38722.50;5071764;28;20278;-72
2023/12/01 00:07:29;;;;;;;19.20;17.80;;;;;;;-141.02;100.00;38760.84;5071646;28;20191;-73
2023/12/01 00:09:56;;;;;;;19.10;17.80;;;;;;;-141.02;100.00;38751.28;5071411;28;20664;-73
2023/12/01 00:12:24;;;;;;;22.60;21.20;;;;;;;-141.02;100.00;38730.19;5071647;28;20627;-74
2023/12/01 00:14:51;;;;;;;26.30;24.60;;;;;;;-141.02;100.00;38743.59;5071306;28;20704;-74
2023/12/01 00:17:18;;;;;;;18.10;16.90;;;;;;;-141.02;100.00;38726.34;5071179;28;20583;-74
2023/12/01 00:19:45;;;;;;;17.87;16.67;;;;;;;-141.02;100.00;38772.38;5071125;28;20753;-74
2023/12/01 00:22:12;;;;;;;22.47;21.07;;;;;;;-141.02;100.00;38766.63;5071296;28;20732;-73
2023/12/01 00:24:39;;;;;;;22.00;20.70;;;;;;;-141.02;100.00;38760.84;5074692;28;20194;-73
2023/12/01 00:27:09;;;;;;;17.27;16.17;;;;;;;-141.02;100.00;38745.53;5075486;28;20228;-73
2023/12/01 00:29:38;;;;;;;24.30;22.80;;;;;;;-141.02;100.00;38778.13;5074811;28;20231;-73
2023/12/01 00:32:05;;;;;;;23.97;22.47;;;;;;;-141.02;100.00;38758.94;5074723;28;20284;-74
2023/12/01 00:34:32;;;;;;;17.97;16.77;;;;;;;-141.02;100.00;38762.78;5075017;28;20221;-73
2023/12/01 00:36:59;;;;;;;17.70;16.50;;;;;;;-141.02;100.00;38749.34;5074568;28;20237;-74
2023/12/01 00:39:26;;;;;;;23.50;22.00;;;;;;;-141.02;100.00;38772.38;5074519;28;20318;-74
2023/12/01 00:41:53;;;;;;;24.00;22.50;;;;;;;-141.02;100.00;38781.94;5074857;28;20203;-75
2023/12/01 00:44:20;;;;;;;18.60;17.30;;;;;;;-141.02;100.00;38783.88;5074511;28;20604;-74
2023/12/01 00:46:48;;;;;;;18.10;16.80;;;;;;;-141.02;100.00;38778.13;5074805;28;20205;-74
2023/12/01 00:49:15;;;;;;;24.73;23.13;;;;;;;-141.02;100.00;38803.03;5074728;28;20205;-74
2023/12/01 00:51:43;;;;;;;25.33;23.63;;;;;;;-141.02;100.00;38783.88;5074805;28;20638;-74
2023/12/01 00:54:11;;;;;;;18.90;17.50;;;;;;;-141.02;100.00;38808.78;5074367;28;20755;-74
2023/12/01 00:56:38;;;;;;;19.30;17.90;;;;;;;-141.02;100.00;38780.03;5074711;28;20202;-75
2023/12/01 00:59:05;;;;;;;25.37;23.77;;;;;;;-141.02;100.00;38795.38;5074208;28;20289;-75
2023/12/01 01:01:33;;;;;;;25.63;23.93;;;;;;;-141.02;100.00;38753.19;5074620;28;20200;-76
2023/12/01 01:04:01;;;;;;;18.77;17.47;;;;;;;-141.02;100.00;38791.53;5074541;28;20201;-77
2023/12/01 01:06:28;;;;;;;18.90;17.60;;;;;;;-141.02;100.00;38787.72;5074575;28;20209;-78
2023/12/01 01:08:55;;;;;;;23.77;22.27;;;;;;;-141.02;100.00;38768.53;5074615;28;20190;-77
2023/12/01 01:11:22;;;;;;;24.17;22.57;;;;;;;-141.02;100.00;38760.84;5074186;28;20199;-77
2023/12/01 01:13:49;;;;;;;18.70;17.40;;;;;;;-141.02;100.00;38816.47;5074097;28;20582;-77
2023/12/01 01:16:16;;;;;;;18.13;16.83;;;;;;;-141.02;100.00;38826.06;5074066;28;20235;-77
2023/12/01 01:18:43;;;;;;;24.03;22.43;;;;;;;-141.02;100.00;38837.56;5074579;28;20559;-77
2023/12/01 01:21:11;;;;;;;30.50;28.70;;;;;;;-141.02;100.00;38822.22;5074517;28;20333;-77
2023/12/01 01:23:38;;;;;;;17.80;16.60;;;;;;;-141.02;100.00;38806.88;5074257;28;20198;-77
2023/12/01 01:26:07;;;;;;;24.87;23.27;;;;;;;-141.02;100.00;38774.28;5073996;28;20225;-77
2023/12/01 01:28:34;;;;;;;23.30;21.90;;;;;;;-141.02;100.00;38803.03;5073974;28;20198;-77
2023/12/01 01:31:01;;;;;;;23.77;22.27;;;;;;;-141.02;100.00;38780.03;5074165;28;20216;-76
2023/12/01 01:33:28;;;;;;;18.00;16.80;;;;;;;-141.02;100.00;38810.72;5074095;28;20201;-76
2023/12/01 01:35:54;;;;;;;26.03;24.43;;;;;;;-141.02;100.00;38776.19;5073610;28;20586;-77
2023/12/01 01:38:23;;;;;;;25.53;23.93;;;;;;;-141.02;100.00;38757.03;5073992;28;20198;-76
2023/12/01 01:40:50;;;;;;;19.20;17.90;;;;;;;-141.02;100.00;38776.19;5073789;28;20226;-77
2023/12/01 01:43:21;;;;;;;19.33;18.00;;;;;;;-141.02;100.00;38797.28;5073627;28;20672;-77
2023/12/01 01:45:55;;;;;;;26.67;24.87;;;;;;;-141.02;100.00;38780.03;5073536;28;20241;-76
2023/12/01 01:48:22;;;;;;;25.07;23.47;;;;;;;-141.02;100.00;38793.47;5073568;28;20253;-77
2023/12/01 01:50:49;;;;;;;19.70;18.30;;;;;;;-141.02;100.00;38831.81;5073698;28;20198;-77
2023/12/01 01:53:16;;;;;;;19.97;18.57;;;;;;;-141.02;100.00;38787.72;5073416;28;20230;-76
2023/12/01 01:55:45;;;;;;;27.10;25.30;;;;;;;-141.02;100.00;38801.13;5073253;28;20742;-76
2023/12/01 01:58:13;;;;;;;25.60;23.90;;;;;;;-141.02;100.00;38795.38;5073327;28;20191;-77
2023/12/01 02:00:41;;;;;;;19.87;18.47;;;;;;;-141.02;100.00;38804.97;5073138;28;20232;-77
2023/12/01 02:03:15;;;;;;;19.90;18.40;;;;;;;-141.02;100.00;38804.97;5073365;28;20194;-76
2023/12/01 02:05:42;;;;;;;25.63;23.83;;;;;;;-141.02;100.00;38799.22;5073420;28;20277;-77
2023/12/01 02:08:24;;;;;;;25.53;23.73;;;;;;;-141.02;100.00;38827.97;5073211;28;20285;-78
2023/12/01 02:10:54;;;;;;;19.93;18.43;;;;;;;-141.02;100.00;38795.38;5073356;28;20186;-77
2023/12/01 02:13:21;;;;;;;24.57;22.87;;;;;;;-141.02;100.00;38785.78;5072964;28;20194;-77
2023/12/01 02:15:48;;;;;;;25.10;23.30;;;;;;;-141.02;100.00;38845.22;5072810;28;20704;-78
2023/12/01 02:18:22;;;;;;;19.93;18.43;;;;;;;-141.02;100.00;38887.41;5073256;28;20194;-78
2023/12/01 02:20:50;;;;;;;20.20;18.70;;;;;;;-141.02;100.00;38845.22;5072719;28;20313;-78
2023/12/01 02:23:18;;;;;;;24.40;22.70;;;;;;;-141.02;100.00;38801.13;5073302;28;20277;-78
2023/12/01 02:25:45;;;;;;;25.30;23.60;;;;;;;-141.02;100.00;38810.72;5072943;28;20664;-80
2023/12/01 02:28:12;;;;;;;20.60;19.00;;;;;;;-141.02;100.00;38799.22;5072956;28;20195;-79
2023/12/01 02:30:41;;;;;;;20.20;18.67;;;;;;;-141.02;100.00;38239.38;5073030;28;20213;-79
2023/12/01 02:33:08;;;;;;;24.80;23.10;;;;;;;-141.02;100.00;38774.28;5072642;28;20240;-79
2023/12/01 02:35:36;;;;;;;29.03;27.13;;;;;;;-141.02;100.00;38791.53;5072711;28;20290;-79
2023/12/01 02:38:03;;;;;;;19.03;17.63;;;;;;;-141.02;100.00;38818.38;5073043;28;20282;-79
2023/12/01 02:40:31;;;;;;;26.87;25.07;;;;;;;-141.02;100.00;38803.03;5072995;28;20296;-79
2023/12/01 02:42:58;;;;;;;23.93;22.33;;;;;;;-141.02;100.00;38810.72;5072832;28;20252;-79
2023/12/01 02:45:25;;;;;;;21.93;20.43;;;;;;;-141.02;100.00;38795.38;5072264;28;20276;-78
2023/12/01 02:47:52;;;;;;;18.17;16.87;;;;;;;-141.02;100.00;38785.78;5072976;28;20195;-79
2023/12/01 02:50:20;;;;;;;27.83;25.83;;;;;;;-141.02;100.00;38803.03;5072675;28;20230;-78
2023/12/01 02:52:47;;;;;;;24.67;22.97;;;;;;;-141.02;100.00;38785.78;5072629;28;20190;-77
2023/12/01 02:55:14;;;;;;;18.80;17.40;;;;;;;-141.02;100.00;38806.88;5072652;28;20194;-77
2023/12/01 02:57:43;;;;;;;18.80;17.40;;;;;;;-141.02;100.00;38785.78;5072392;28;20198;-77
2023/12/01 03:00:13;;;;;;;24.40;22.80;;;;;;;-141.02;100.00;38772.38;5072296;28;20222;-77
2023/12/01 03:02:40;;;;;;;27.67;25.87;;;;;;;-141.02;100.00;38793.47;5072344;28;20281;-79
2023/12/01 03:05:09;;;;;;;18.80;17.40;;;;;;;-141.02;100.00;38803.03;5072423;28;20200;-77
2023/12/01 03:07:39;;;;;;;23.07;21.47;;;;;;;-141.02;100.00;38801.13;5072408;28;20199;-78
2023/12/01 03:10:08;;;;;;;25.27;23.57;;;;;;;-141.02;100.00;38808.78;5072296;28;20205;-78
2023/12/01 03:12:35;;;;;;;27.57;25.77;;;;;;;-141.02;100.00;38776.19;5072596;28;20194;-77
2023/12/01 03:15:04;;;;;;;18.00;16.70;;;;;;;-141.02;100.00;38783.88;5072150;28;20565;-78
2023/12/01 03:17:31;;;;;;;18.20;16.90;;;;;;;-141.02;100.00;38780.03;5072477;28;20183;-77
2023/12/01 03:19:59;;;;;;;18.53;17.23;;;;;;;-141.02;100.00;37794.63;5072106;28;20579;-78
2023/12/01 03:22:26;;;;;;;18.80;17.40;;;;;;;-141.02;100.00;38885.50;5072516;28;20285;-77
2023/12/01 03:24:53;;;;;;;18.23;16.93;;;;;;;-141.02;100.00;38781.94;5072045;28;20213;-78
2023/12/01 03:27:20;;;;;;;18.20;16.90;;;;;;;-141.02;100.00;38764.69;5072410;28;20228;-78
2023/12/01 03:29:47;;;;;;;18.20;16.90;;;;;;;-141.02;100.00;38776.19;5072347;28;20198;-77
2023/12/01 03:32:16;;;;;;;18.20;16.90;;;;;;;-141.02;100.00;38745.53;5072388;28;20202;-78
2023/12/01 03:34:43;;;;;;;19.10;17.70;;;;;;;-141.02;100.00;38764.69;5072121;28;20194;-78
2023/12/01 03:37:10;;;;;;;17.97;16.67;;;;;;;-141.02;100.00;38768.53;5072213;28;20281;-79
2023/12/01 03:39:39;;;;;;;18.17;16.87;;;;;;;-141.02;100.00;38780.03;5072519;28;20587;-78
2023/12/01 03:42:09;;;;;;;19.10;17.70;;;;;;;-141.02;100.00;38764.69;5071836;28;20321;-78
2023/12/01 03:44:37;;;;;;;18.00;16.70;;;;;;;-141.02;100.00;38776.19;5072357;28;20206;-78
2023/12/01 03:47:05;;;;;;;18.30;17.00;;;;;;;-141.02;100.00;38722.50;5072195;28;20571;-78
2023/12/01 03:49:33;;;;;;;19.10;17.70;;;;;;;-141.02;100.00;38755.09;5072305;28;20204;-79
2023/12/01 03:52:00;;;;;;;18.30;17.00;;;;;;;-141.02;100.00;38751.28;5071833;28;20290;-79
2023/12/01 03:54:27;;;;;;;17.20;16.00;;;;;;;-141.02;100.00;38753.19;5072131;28;20278;-78
2023/12/01 03:56:54;;;;;;;18.27;16.97;;;;;;;-141.02;100.00;38764.69;5072125;28;20624;-77
2023/12/01 03:59:21;;;;;;;18.30;17.00;;;;;;;-141.02;100.00;38753.19;5074619;28;20190;-78
2023/12/01 04:01:48;;;;;;;18.00;16.70;;;;;;;-141.02;100.00;38780.03;5075393;28;20233;-78
2023/12/01 04:04:16;;;;;;;17.80;16.50;;;;;;;-141.02;100.00;38787.72;5075391;28;20206;-77
2023/12/01 04:06:49;;;;;;;17.70;16.40;;;;;;;-141.02;100.00;38757.03;5075540;28;20236;-77
2023/12/01 04:09:16;;;;;;;17.67;16.37;;;;;;;-141.02;100.00;38755.09;5075676;28;20198;-78
2023/12/01 04:11:43;;;;;;;18.17;16.77;;;;;;;-141.02;100.00;38778.13;5075389;28;20640;-77
2023/12/01 04:14:10;;;;;;;18.43;17.03;;;;;;;-141.02;100.00;38778.13;5075634;28;20202;-77
2023/12/01 04:16:37;;;;;;;18.23;16.83;;;;;;;-141.02;100.00;38745.53;5075179;28;20237;-77
2023/12/01 04:19:04;;;;;;;18.13;16.73;;;;;;;-141.02;100.00;38757.03;5075447;28;20281;-77
2023/12/01 04:21:31;;;;;;;18.20;16.80;;;;;;;-141.02;100.00;38776.19;5075372;28;20237;-77
2023/12/01 04:23:59;;;;;;;18.03;16.63;;;;;;;-141.02;100.00;38772.38;5075106;28;20194;-77
2023/12/01 04:26:28;;;;;;;18.17;16.77;;;;;;;-141.02;100.00;38783.88;5075270;28;20289;-77
2023/12/01 04:28:55;;;;;;;18.43;17.03;;;;;;;-141.02;100.00;38772.38;5075361;28;20202;-77
2023/12/01 04:31:22;;;;;;;18.37;16.97;;;;;;;-141.02;100.00;38770.44;5075101;28;20198;-77
2023/12/01 04:33:49;;;;;;;18.27;16.87;;;;;;;-141.02;100.00;38749.34;5075925;28;20195;-77
2023/12/01 04:36:16;;;;;;;18.03;16.63;;;;;;;-141.02;100.00;38764.69;5074966;28;20234;-77
2023/12/01 04:38:43;;;;;;;18.60;17.20;;;;;;;-141.02;100.00;38741.69;5074861;28;20277;-78
2023/12/01 04:41:12;;;;;;;18.10;16.70;;;;;;;-141.02;100.00;38741.69;5075082;28;20230;-77
2023/12/01 04:43:40;;;;;;;17.77;16.47;;;;;;;-141.02;100.00;38758.94;5074808;28;20236;-77
2023/12/01 04:46:08;;;;;;;17.60;16.30;;;;;;;-141.02;100.00;38764.69;5075157;28;20195;-77
2023/12/01 04:48:35;;;;;;;17.77;16.47;;;;;;;-141.02;100.00;38787.72;5075181;28;20201;-77
2023/12/01 04:51:02;;;;;;;18.30;16.90;;;;;;;-141.02;100.00;38772.38;5074790;28;20204;-77
2023/12/01 04:53:29;;;;;;;18.03;16.63;;;;;;;-141.02;100.00;38768.53;5074916;28;20220;-77
2023/12/01 04:55:56;;;;;;;18.20;16.80;;;;;;;-141.02;100.00;38808.78;5074923;28;20248;-77
2023/12/01 04:58:25;;;;;;;17.90;16.50;;;;;;;-141.02;100.00;38764.69;5074380;28;20248;-77
2023/12/01 05:00:52;;;;;;;18.40;17.00;;;;;;;-141.02;100.00;38770.44;5074564;28;20704;-77
2023/12/01 05:03:19;;;;;;;21.50;20.00;;;;;;;-141.02;100.00;38778.13;5074658;28;20195;-77
2023/12/01 05:05:46;;;;;;;20.70;19.20;;;;;;;-141.02;100.00;38762.78;5074789;28;20208;-77
2023/12/01 05:08:13;;;;;;;18.07;16.67;;;;;;;-141.02;100.00;38778.13;5074837;28;20224;-77
2023/12/01 05:10:44;;;;;;;17.77;16.37;;;;;;;-141.02;100.00;38745.53;5074209;28;20198;-77
2023/12/01 05:13:11;;;;;;;22.70;21.07;;;;;;;-141.02;100.00;38787.72;5074755;28;20187;-76
2023/12/01 05:15:40;;;;;;;23.43;21.73;;;;;;;-141.02;100.00;38768.53;5073902;28;20656;-77
2023/12/01 05:18:10;;;;;;;18.00;16.60;;;;;;;-141.02;100.00;38795.38;5074196;28;20199;-77
2023/12/01 05:20:37;;;;;;;24.90;23.10;;;;;;;-141.02;100.00;38780.03;5074016;28;20285;-78
2023/12/01 05:23:08;;;;;;;23.17;21.47;;;;;;;-141.02;100.00;38791.53;5074031;28;20289;-76
2023/12/01 05:25:36;;;;;;;18.33;16.87;;;;;;;-141.02;100.00;38827.97;5074412;28;20269;-77
2023/12/01 05:28:05;;;;;;;18.70;17.20;;;;;;;-141.02;100.00;38826.06;5074022;28;20209;-76
2023/12/01 05:30:34;;;;;;;21.83;20.23;;;;;;;-141.02;100.00;38921.94;5074071;28;20194;-75
2023/12/01 05:33:04;;;;;;;27.47;25.47;;;;;;;-141.02;100.00;38852.91;5073688;28;20549;-76
2023/12/01 05:35:32;;;;;;;19.02;17.45;;;;;;;-141.02;100.00;38874.00;5073821;28;20187;-76
2023/12/01 05:37:59;;;;;;;23.13;21.33;;;;;;;-141.02;100.00;38883.56;5073955;28;20194;-76
2023/12/01 05:40:27;;;;;;;22.03;20.33;;;;;;;-141.02;100.00;38898.91;5073819;28;20202;-76
2023/12/01 05:42:56;;;;;;;18.20;16.70;;;;;;;-141.02;100.00;38941.09;5073764;28;20273;-76
2023/12/01 05:45:25;;;;;;;18.20;16.80;;;;;;;-141.02;100.00;38998.63;5073743;28;20198;-76
2023/12/01 05:47:53;;;;;;;22.30;20.60;;;;;;;-141.02;100.00;39132.88;5073673;28;20190;-76
2023/12/01 05:50:23;;;;;;;18.10;16.70;;;;;;;-141.02;100.00;39159.72;5073652;28;20250;-75
2023/12/01 05:52:52;;;;;;;19.20;17.60;;;;;;;-141.02;100.00;39240.25;5073214;28;20285;-75
2023/12/01 05:55:20;;;;;;;21.30;19.70;;;;;;;-141.02;100.00;39309.28;5073160;28;20191;-76
2023/12/01 05:57:49;;;;;;;20.48;18.92;;;;;;;-141.02;100.00;39370.66;5073104;28;20194;-75
2023/12/01 06:00:18;;;;;;;18.40;16.90;;;;;;;-141.02;100.00;39474.22;5073009;28;20205;-76
2023/12/01 06:02:46;;;;;;;21.27;19.67;;;;;;;-141.02;100.00;38680.34;5073324;28;20333;-75
2023/12/01 06:05:13;;;;;;;22.10;20.40;;;;;;;-141.02;100.00;39470.38;5073236;28;20286;-76
2023/12/01 06:07:44;;;;;;;18.80;17.30;;;;;;;-141.02;100.00;39539.44;5073262;28;20198;-75
2023/12/01 06:10:11;;;;;;;18.80;17.20;;;;;;;-141.02;100.00;39547.09;5072994;28;20248;-76
2023/12/01 06:12:39;;;;;;;22.17;20.47;;;;;;;-141.02;100.00;39568.19;5072803;28;20289;-76
2023/12/01 06:15:09;;;;;;;23.40;21.60;;;;;;;-141.02;100.00;39568.19;5072566;28;20627;-76
2023/12/01 06:17:36;;;;;;;19.57;17.93;;;;;;;-141.02;100.00;39608.47;5073083;28;20198;-76
2023/12/01 06:20:04;;;;;;;19.27;17.67;;;;;;;-141.02;100.00;39639.16;5072904;28;20273;-76
2023/12/01 06:22:32;;;;;;;23.20;21.40;;;;;;;-141.02;100.00;39646.81;5072433;28;20309;-76
2023/12/01 06:25:01;;;;;;;19.00;17.40;;;;;;;-141.02;100.00;39673.69;5072780;28;20220;-76
2023/12/01 06:27:28;;;;;;;19.40;17.80;;;;;;;-141.02;100.00;39690.94;5072944;28;20652;-76
2023/12/01 06:29:55;;;;;;;23.17;21.47;;;;;;;-141.02;100.00;39685.19;5072588;28;20635;-76
2023/12/01 06:32:22;;;;;;;24.98;23.08;;;;;;;-141.02;100.00;39692.84;5073006;28;20229;-76
2023/12/01 06:34:49;;;;;;;19.20;17.60;;;;;;;-141.02;100.00;39679.44;5072815;28;20324;-76
2023/12/01 06:37:17;;;;;;;19.97;18.27;;;;;;;-141.02;100.00;39704.38;5072827;28;20285;-76
2023/12/01 06:39:44;;;;;;;19.73;18.03;;;;;;;-141.02;100.00;39712.03;5072464;28;20217;-76
2023/12/01 06:42:13;;;;;;;19.83;18.13;;;;;;;-141.02;100.00;39708.19;5072424;28;20261;-76
2023/12/01 06:44:40;;;;;;;19.30;17.60;;;;;;;-141.02;100.00;39750.41;5072416;28;20194;-77
2023/12/01 06:47:07;;;;;;;18.90;17.30;;;;;;;-141.02;100.00;39744.66;5072666;28;20198;-76
2023/12/01 06:49:41;;;;;;;18.92;17.33;;;;;;;-141.02;100.00;39779.16;5072477;28;20234;-76
2023/12/01 06:52:08;;;;;;;19.70;17.90;;;;;;;-141.02;100.00;39800.25;5072809;28;20269;-77
2023/12/01 06:54:35;;;;;;;26.15;24.15;;;;;;;-141.02;100.00;39850.13;5072384;28;20198;-76
2023/12/01 06:57:41;;;;;;;24.35;22.45;;;;;;;-141.02;100.00;39867.41;5072221;28;20675;-76
2023/12/01 07:00:23;;;;;;;19.52;17.83;;;;;;;-141.02;100.00;39942.19;5072128;28;20194;-76
2023/12/01 07:02:55;;;;;;;18.98;17.27;;;;;;;-141.02;100.00;39907.69;5072455;28;20269;-76
2023/12/01 07:05:23;;;;;;;19.17;17.48;;;;;;;-141.02;100.00;39926.84;5072147;28;20198;-76
2023/12/01 07:07:50;;;;;;;18.58;16.95;;;;;;;-141.02;100.00;39953.72;5072354;28;20195;-77
2023/12/01 07:10:17;;;;;;;19.30;17.60;;;;;;;-141.02;100.00;39957.53;5072441;28;20668;-77
2023/12/01 07:12:44;;;;;;;19.65;17.90;;;;;;;-141.02;100.00;39953.72;5072446;28;20255;-76
2023/12/01 07:15:12;;;;;;;19.55;17.85;;;;;;;-141.02;100.00;39961.38;5072219;28;20285;-77
2023/12/01 07:17:39;;;;;;;19.35;17.65;;;;;;;-141.02;100.00;40007.41;5072340;28;20205;-77
2023/12/01 07:20:13;;;;;;;20.10;18.30;;;;;;;-141.02;100.00;40064.97;5072026;28;20203;-85
2023/12/01 07:22:42;;;;;;;20.80;18.98;;;;;;;-141.02;100.00;40080.31;5072268;28;20587;-76
2023/12/01 07:25:10;;;;;;;20.23;18.42;;;;;;;-141.02;100.00;40057.28;5072400;28;20204;-76
2023/12/01 07:27:37;;;;;;;19.77;17.98;;;;;;;-141.02;100.00;40118.66;5072268;28;20202;-77
2023/12/01 07:30:05;;;;;;;20.40;18.50;;;;;;;-141.02;100.00;40111.00;5071997;28;20190;-84
2023/12/01 07:32:33;;;;;;;20.20;18.30;;;;;;;-141.02;100.00;40126.34;5073701;28;20199;-77
2023/12/01 07:35:00;;;;;;;19.67;17.88;;;;;;;-141.02;100.00;40168.53;5076305;28;20326;-82
2023/12/01 07:37:27;;;;;;;20.50;18.60;;;;;;;-141.02;100.00;40228.00;5076232;28;20206;-76
2023/12/01 07:39:54;;;;;;;19.80;18.00;;;;;;;-141.02;100.00;40300.91;5075854;28;20200;-77
2023/12/01 07:42:24;;;;;;;20.05;18.15;;;;;;;-141.02;100.00;40304.75;5075985;28;20265;-77
2023/12/01 07:44:51;;;;;;;20.25;18.38;;;;;;;-141.02;100.00;40306.66;5076060;28;20197;-78
2023/12/01 07:47:18;;;;;;;20.55;18.65;;;;;;;-141.02;100.00;40310.50;5077078;28;20278;-78
2023/12/01 07:49:46;;;;;;;20.20;18.40;;;;;;;-141.02;100.00;40277.88;5077027;28;20285;-77
2023/12/01 07:52:13;;;;;;;20.30;18.40;;;;;;;-141.02;100.00;40272.13;5076360;28;20198;-88
2023/12/01 07:54:40;;;;;;;20.50;18.60;;;;;;;-141.02;100.00;40222.25;5075995;28;20237;-77
2023/12/01 07:57:09;;;;;;;20.25;18.35;;;;;;;-141.02;100.00;40168.53;5076876;28;20281;-82
2023/12/01 07:59:37;;;;;;;20.15;18.25;;;;;;;-141.02;100.00;40126.34;5076102;28;20194;-78
2023/12/01 08:02:04;;;;;;;21.33;19.33;;;;;;;-141.02;100.00;40078.38;5076443;28;20574;-79
2023/12/01 08:04:31;;;;;;;22.70;20.60;;;;;;;-141.02;100.00;40061.13;5076178;28;20202;-90
2023/12/01 08:07:00;;;;;;;22.30;20.20;;;;;;;-141.02;100.00;40095.66;5079792;28;20201;-80
2023/12/01 08:09:31;;;;;;;22.40;20.30;;;;;;;-141.02;100.00;40157.03;5081193;28;20329;-78
2023/12/01 08:11:59;;;;;;;22.63;20.52;;;;;;;-141.02;100.00;40260.63;5075772;28;20195;-79
2023/12/01 08:14:26;;;;;;;22.08;19.98;;;;;;;-141.02;100.00;40511.94;5084091;28;20198;-78
2023/12/01 08:16:53;;;;;;;22.15;20.05;;;;;;;-141.02;100.00;40345.03;5077451;28;20321;-78
2023/12/01 08:19:20;;;;;;;21.85;19.75;;;;;;;-141.02;100.00;40375.72;5077394;28;20198;-79
2023/12/01 08:21:47;;;;;;;23.50;21.20;;;;;;;-141.02;100.00;40345.03;5077803;28;20418;-87
2023/12/01 08:24:17;;;;;;;22.77;20.50;;;;;;;-141.02;100.00;40316.25;5076188;28;20244;-78
2023/12/01 08:26:47;;;;;;;23.58;21.27;;;;;;;-141.02;100.00;40279.81;5075539;28;20202;-78
2023/12/01 08:29:14;;;;;;;22.35;20.25;;;;;;;-141.02;100.00;40245.28;5075392;28;20569;-86
2023/12/01 08:31:43;;;;;;;23.60;21.40;;;;;;;-141.02;100.00;40260.63;5075055;28;20247;-78
2023/12/01 08:34:10;;;;;;;21.75;19.75;;;;;;;-141.02;100.00;40245.28;5075283;28;20202;-77
2023/12/01 08:36:37;;;;;;;22.52;20.42;;;;;;;-141.02;100.00;40245.28;5075014;28;20195;-78
2023/12/01 08:39:04;;;;;;;23.45;21.25;;;;;;;-141.02;100.00;40237.59;5074821;28;20702;-85
2023/12/01 08:41:33;;;;;;;26.73;24.33;;;;;;;-141.02;100.00;40306.66;5074735;28;20206;-77
2023/12/01 08:44:01;;;;;;;26.77;24.27;;;;;;;-141.02;99.57;40356.53;5074001;28;20202;-77
2023/12/01 08:46:28;;;;;;;26.85;24.35;;;;;;;-141.02;97.97;40368.03;5075081;28;20202;-77
2023/12/01 08:48:55;;;;;;;25.60;23.20;;;;;;;-141.02;98.51;40471.63;5075034;28;20251;-78
2023/12/01 08:51:22;;;;;;;23.70;21.30;;;;;;;-141.02;95.51;40575.22;5074894;28;20194;-77
2023/12/01 08:53:49;;;;;;;24.15;21.75;;;;;;;-141.02;96.78;40611.69;5075135;28;20199;-78
2023/12/01 08:56:16;;;;;;;25.50;22.90;;;;;;;-141.02;90.60;40728.72;5074978;28;20290;-78
2023/12/01 08:58:44;;;;;;;26.88;24.27;;;;;;;-141.02;92.86;40916.75;5074760;28;20201;-78
2023/12/01 09:01:11;;;;;;;25.77;23.20;;;;;;;-141.02;86.72;40655.81;5074312;28;20285;-78
2023/12/01 09:03:38;;;;;;;26.75;24.15;;;;;;;-141.02;85.78;40567.56;5074993;28;20713;-77
2023/12/01 09:06:06;;;;;;;25.70;23.20;;;;;;;-141.02;87.88;40519.59;5074560;28;20234;-77
2023/12/01 09:08:33;;;;;;;31.25;28.25;;;;;;;-141.02;86.02;40402.56;5074297;28;20665;-77
2023/12/01 09:11:00;;;;;;;29.55;26.85;;;;;;;-141.02;88.93;40410.25;5074541;28;20244;-78
2023/12/01 09:13:27;;;;;;;30.77;27.95;;;;;;;-141.02;90.35;40398.75;5074243;28;20251;-83
2023/12/01 09:15:56;;;;;;;31.23;28.40;;;;;;;-141.02;92.00;40552.22;5074194;28;20238;-78
2023/12/01 09:18:22;;;;;;;27.08;24.48;;;;;;;-141.02;93.63;40452.44;5074253;28;20205;-79
2023/12/01 09:20:50;;;;;;;27.25;24.65;;;;;;;-141.02;94.58;40596.34;5074062;28;20289;-79
2023/12/01 09:23:16;;;;;;;27.65;24.98;;;;;;;-141.02;94.34;40698.00;5074444;28;20225;-79
2023/12/01 09:25:44;;;;;;;27.17;24.58;;;;;;;-141.02;93.36;40199.22;5073904;28;20589;-79
2023/12/01 09:28:11;;;;;;;25.98;23.38;;;;;;;-141.02;88.39;40774.75;5074126;28;20190;-78
2023/12/01 09:30:38;;;;;;;27.70;25.00;;;;;;;-141.02;86.43;40957.03;5073876;28;20675;-79
2023/12/01 09:33:06;;;;;;;32.78;29.88;;;;;;;-141.02;83.07;40840.00;5073938;28;20195;-78
2023/12/01 09:35:33;;;;;;;33.10;30.13;;;;;;;-141.02;84.92;40749.81;5073954;28;20202;-79
2023/12/01 09:38:00;;;;;;;29.65;26.95;;;;;;;-141.02;81.24;40577.16;5073741;28;20281;-82
2023/12/01 09:40:27;;;;;;;26.55;23.85;;;;;;;-141.02;81.35;40630.88;5073850;28;20194;-82
2023/12/01 09:42:56;;;;;;;26.30;23.60;;;;;;;-141.02;80.88;40676.91;5073818;28;20313;-81
2023/12/01 09:45:26;;;;;;;25.00;22.45;;;;;;;-141.02;84.11;40540.69;5073879;28;20198;-81
2023/12/01 09:47:59;;;;;;;27.08;24.27;;;;;;;-141.02;84.37;40943.59;5073749;28;20533;-82
2023/12/01 09:50:28;;;;;;;26.10;23.40;;;;;;;-141.02;81.12;41112.44;5073638;28;20230;-80
2023/12/01 09:52:55;;;;;;;25.55;22.95;;;;;;;-141.02;80.05;41135.47;5073558;28;20290;-80
2023/12/01 09:55:22;;;;;;;30.90;28.00;;;;;;;-141.02;79.21;41283.22;5073043;28;20197;-80
2023/12/01 09:57:50;;;;;;;32.17;29.08;;;;;;;-141.02;72.92;40972.38;5073224;28;20230;-80
2023/12/01 10:00:17;;;;;;;29.10;26.20;;;;;;;-141.02;74.52;41219.91;5073428;28;20285;-79
2023/12/01 10:02:44;;;;;;;26.95;24.15;;;;;;;-141.02;74.72;41496.22;5073210;28;20585;-79
2023/12/01 10:05:13;;;;;;;26.15;23.38;;;;;;;-141.02;70.73;41438.66;5073381;28;20281;-79
2023/12/01 10:07:42;;;;;;;27.88;24.98;;;;;;;-141.02;68.52;41526.91;5073581;28;20201;-78
2023/12/01 10:10:19;;;;;;;32.70;29.50;;;;;;;-141.02;69.14;41457.84;5073290;28;20198;-77
2023/12/01 10:12:58;;;;;;;32.15;28.95;;;;;;;-141.02;66.98;40818.88;5073514;28;20190;-77
2023/12/01 10:15:25;;;;;;;29.52;26.63;;;;;;;-141.02;71.95;40809.28;5072826;28;20226;-78
2023/12/01 10:17:53;;;;;;;26.20;23.30;;;;;;;-141.02;70.51;40675.00;5073081;28;20301;-78
2023/12/01 10:20:21;;;;;;;24.67;21.88;;;;;;;-141.02;71.36;40705.69;5074187;28;20249;-78
2023/12/01 10:22:50;;;;;;;27.48;24.58;;;;;;;-141.02;71.24;40598.25;5073044;28;20226;-78
2023/12/01 10:25:18;;;;;;;25.23;22.52;;;;;;;-141.02;76.22;40628.94;5073140;28;20201;-78
2023/12/01 10:27:55;;;;;;;30.20;27.35;;;;;;;-141.02;76.71;40648.13;5073220;28;20202;-78
2023/12/01 10:30:23;;;;;;;31.27;28.27;;;;;;;-141.02;76.37;40707.59;5072844;28;20190;-78
2023/12/01 10:32:50;;;;;;;32.17;29.10;;;;;;;-141.02;75.46;40736.38;5072679;28;20206;-77
2023/12/01 10:35:18;;;;;;;26.20;23.40;;;;;;;-141.02;79.44;40809.28;5073041;28;20241;-78
2023/12/01 10:37:45;;;;;;;27.17;24.27;;;;;;;-141.02;74.16;40663.47;5072771;28;20243;-78
2023/12/01 10:40:14;;;;;;;29.65;26.55;;;;;;;-141.02;76.48;40648.13;5073034;28;20277;-78
2023/12/01 10:42:42;;;;;;;26.42;23.63;;;;;;;-141.02;74.57;40648.13;5072812;28;20265;-78
2023/12/01 10:45:12;;;;;;;30.35;27.40;;;;;;;-141.02;73.34;40644.28;5072790;28;20277;-78
2023/12/01 10:47:46;;;;;;;31.67;28.63;;;;;;;-141.02;76.42;40644.28;5072526;28;20245;-77
2023/12/01 10:50:16;;;;;;;30.20;27.30;;;;;;;-141.02;75.08;40594.41;5072405;28;20187;-77
2023/12/01 10:52:46;;;;;;;28.55;25.75;;;;;;;-141.02;76.77;40650.06;5072470;28;20207;-78
2023/12/01 10:55:14;;;;;;;29.30;26.40;;;;;;;-141.02;77.66;40590.59;5072319;28;20201;-77
2023/12/01 10:57:44;;;;;;;27.90;25.10;;;;;;;-141.02;75.98;40588.66;5072669;28;20194;-76